createdAt,value
2017-10-13T00:03:35.823Z,100165.80
2017-10-13T00:07:39.302Z,100169.97
2017-10-13T00:11:42.810Z,100169.53
2017-10-13T00:15:46.285Z,100171.54
2017-10-13T00:19:49.786Z,100176.08
2017-10-13T00:23:53.258Z,100180.27
2017-10-13T00:27:56.759Z,100179.16
2017-10-13T00:32:00.247Z,100175.89
2017-10-13T00:36:03.764Z,100183.37
2017-10-13T00:40:07.254Z,100176.02
2017-10-13T00:44:11.603Z,100178.27
2017-10-13T00:48:15.099Z,100177.30
2017-10-13T00:52:18.603Z,100180.70
2017-10-13T00:56:22.843Z,100177.42
2017-10-13T01:00:26.350Z,100180.38
2017-10-13T01:04:29.878Z,100181.46
2017-10-13T01:08:33.394Z,100174.90
2017-10-13T01:12:36.866Z,100173.25
2017-10-13T01:16:40.366Z,100168.16
2017-10-13T01:20:44.598Z,100166.92
2017-10-13T01:24:48.098Z,100162.00
2017-10-13T01:28:52.327Z,100158.04
2017-10-13T01:32:56.602Z,100159.63
2017-10-13T01:37:00.066Z,100165.75
2017-10-13T01:41:03.571Z,100162.20
2017-10-13T01:45:07.055Z,100155.92
2017-10-13T01:49:11.328Z,100161.79
2017-10-13T01:53:14.802Z,100165.41
2017-10-13T01:57:19.067Z,100165.69
2017-10-13T02:01:22.550Z,100165.38
2017-10-13T02:05:26.041Z,100166.62
2017-10-13T02:09:30.331Z,100177.94
2017-10-13T02:13:33.826Z,100182.28
2017-10-13T02:17:37.302Z,100186.47
2017-10-13T02:21:40.805Z,100184.06
2017-10-13T02:25:44.277Z,100187.68
2017-10-13T02:29:47.782Z,100179.34
2017-10-13T02:33:51.252Z,100175.25
2017-10-13T02:37:54.770Z,100170.75
2017-10-13T02:41:58.242Z,100170.31
2017-10-13T02:46:02.520Z,100168.02
2017-10-13T02:50:06.004Z,100169.61
2017-10-13T02:54:09.506Z,100187.75
2017-10-13T02:58:12.986Z,100179.98
2017-10-13T03:02:17.262Z,100185.15
2017-10-13T03:06:20.744Z,100181.73
2017-10-13T03:10:24.247Z,100184.17
2017-10-13T03:14:27.721Z,100179.77
2017-10-13T03:18:32.000Z,100179.77
2017-10-13T03:22:35.515Z,100181.53
2017-10-13T03:26:39.022Z,100180.42
2017-10-13T03:30:42.505Z,100175.52
2017-10-13T03:34:46.015Z,100181.09
2017-10-13T03:38:49.486Z,100187.09
2017-10-13T03:42:52.982Z,100187.50
2017-10-13T03:46:56.458Z,100193.17
2017-10-13T03:50:59.964Z,100204.08
2017-10-13T03:55:03.437Z,100196.98
2017-10-13T03:59:07.718Z,100192.48
2017-10-13T04:03:11.199Z,100198.47
2017-10-13T04:07:14.710Z,100193.56
2017-10-13T04:11:18.187Z,100189.72
2017-10-13T04:15:21.688Z,100191.50
2017-10-13T04:19:25.931Z,100193.91
2017-10-13T04:23:29.426Z,100192.55
2017-10-13T04:27:33.669Z,100193.37
2017-10-13T04:31:37.174Z,100191.84
2017-10-13T04:35:40.654Z,100199.61
2017-10-13T04:39:45.011Z,100203.58
2017-10-13T04:43:48.490Z,100194.83
2017-10-13T04:47:52.784Z,100197.14
2017-10-13T04:51:56.253Z,100200.91
2017-10-13T04:55:59.760Z,100209.09
2017-10-13T05:00:03.248Z,100213.44
2017-10-13T05:04:07.523Z,100221.61
2017-10-13T05:08:11.005Z,100214.39
2017-10-13T05:12:14.510Z,100222.69
2017-10-13T05:16:18.008Z,100225.83
2017-10-13T05:20:22.250Z,100227.31
2017-10-13T05:24:25.710Z,100237.81
2017-10-13T05:28:29.247Z,100226.08
2017-10-13T05:32:32.703Z,100223.03
2017-10-13T05:36:36.179Z,100226.63
2017-10-13T05:40:39.630Z,100217.91
2017-10-13T05:44:43.123Z,100225.83
2017-10-13T05:48:46.593Z,100225.86
2017-10-13T05:52:50.071Z,100226.94
2017-10-13T05:56:54.342Z,100229.66
2017-10-13T06:00:57.833Z,100231.24
2017-10-13T06:05:01.301Z,100236.38
2017-10-13T06:09:04.770Z,100238.66
2017-10-13T06:13:08.225Z,100239.28
2017-10-13T06:17:11.715Z,100254.66
2017-10-13T06:21:15.179Z,100252.97
2017-10-13T06:25:18.680Z,100258.23
2017-10-13T06:29:22.212Z,100255.97
2017-10-13T06:33:25.709Z,100254.13
2017-10-13T06:37:29.159Z,100262.88
2017-10-13T06:41:32.646Z,100243.11
2017-10-13T06:45:36.099Z,100254.75
2017-10-13T06:49:40.342Z,100260.78
2017-10-13T06:53:43.784Z,100262.01
2017-10-13T06:57:47.269Z,100273.47
2017-10-13T07:01:50.731Z,100279.59
2017-10-13T07:05:54.206Z,100288.60
2017-10-13T07:09:57.650Z,100276.16
2017-10-13T07:14:01.899Z,100266.92
2017-10-13T07:18:05.342Z,100277.29
2017-10-13T07:22:08.827Z,100282.83
2017-10-13T07:26:12.278Z,100283.45
2017-10-13T07:30:15.763Z,100278.33
2017-10-13T07:34:19.213Z,100277.81
2017-10-13T07:38:23.455Z,100281.96
2017-10-13T07:42:26.914Z,100293.03
2017-10-13T07:46:30.387Z,100280.94
2017-10-13T07:50:33.836Z,100292.42
2017-10-13T07:54:37.304Z,100297.24
2017-10-13T07:58:40.772Z,100300.41
2017-10-13T08:02:45.015Z,100292.40
2017-10-13T08:06:48.465Z,100304.15
2017-10-13T08:10:51.942Z,100305.80
2017-10-13T08:14:55.387Z,100308.14
2017-10-13T08:18:58.871Z,100310.92
2017-10-13T08:23:02.331Z,100311.26
2017-10-13T08:27:06.578Z,100310.73
2017-10-13T08:31:10.026Z,100322.55
2017-10-13T08:35:13.508Z,100314.63
2017-10-13T08:39:16.962Z,100316.80
2017-10-13T08:43:20.454Z,100328.63
2017-10-13T08:47:23.908Z,100329.24
2017-10-13T08:51:28.152Z,100325.69
2017-10-13T08:55:31.615Z,100338.39
2017-10-13T08:59:35.907Z,100329.84
2017-10-13T09:03:39.359Z,100325.48
2017-10-13T09:07:43.612Z,100325.61
2017-10-13T09:11:47.065Z,100339.02
2017-10-13T09:15:50.556Z,100337.36
2017-10-13T09:19:54.012Z,100330.66
2017-10-13T09:23:58.258Z,100322.05
2017-10-13T09:28:01.696Z,100325.73
2017-10-13T09:32:05.186Z,100310.59
2017-10-13T09:36:08.635Z,100316.31
2017-10-13T09:40:12.118Z,100316.95
2017-10-13T09:44:15.567Z,100317.08
2017-10-13T09:48:19.805Z,100319.94
2017-10-13T09:52:24.028Z,100299.87
2017-10-13T09:56:28.271Z,100303.01
2017-10-13T10:00:31.725Z,100303.70
2017-10-13T10:04:35.212Z,100306.75
2017-10-13T10:08:38.693Z,100310.53
2017-10-13T10:12:42.318Z,100308.63
2017-10-13T10:16:45.767Z,100300.48
2017-10-13T10:20:49.286Z,100302.95
2017-10-13T10:24:52.734Z,100311.33
2017-10-13T10:28:56.242Z,100311.66
2017-10-13T10:32:59.700Z,100318.23
2017-10-13T10:37:03.186Z,100318.92
2017-10-13T10:41:06.629Z,100326.30
2017-10-13T10:45:10.918Z,100326.35
2017-10-13T10:49:14.366Z,100335.37
2017-10-13T10:53:18.733Z,100333.20
2017-10-13T10:57:22.187Z,100335.45
2017-10-13T11:01:25.681Z,100333.67
2017-10-13T11:05:29.137Z,100336.53
2017-10-13T11:09:32.628Z,100332.92
2017-10-13T11:13:36.849Z,100322.41
2017-10-13T11:17:41.097Z,100317.77
2017-10-13T11:21:44.548Z,100309.70
2017-10-13T11:25:48.006Z,100318.30
2017-10-13T11:29:51.455Z,100319.18
2017-10-13T11:33:54.939Z,100314.69
2017-10-13T11:37:58.386Z,100309.63
2017-10-13T11:42:01.886Z,100311.95
2017-10-13T11:46:05.349Z,100300.38
2017-10-13T11:50:08.836Z,100311.76
2017-10-13T11:54:13.113Z,100307.22
2017-10-13T11:58:16.610Z,100295.28
2017-10-13T12:02:20.057Z,100296.23
2017-10-13T12:06:23.535Z,100288.17
2017-10-13T12:10:26.986Z,100287.98
2017-10-13T12:14:31.238Z,100291.80
2017-10-13T12:18:34.689Z,100278.14
2017-10-13T12:22:38.178Z,100287.92
2017-10-13T12:26:41.637Z,100283.06
2017-10-13T12:30:45.887Z,100274.86
2017-10-13T12:34:49.346Z,100271.78
2017-10-13T12:38:52.819Z,100265.16
2017-10-13T12:42:56.293Z,100270.02
2017-10-13T12:46:59.775Z,100263.23
2017-10-13T12:51:03.251Z,100258.95
2017-10-13T12:55:06.731Z,100274.83
2017-10-13T12:59:10.186Z,100268.32
2017-10-13T13:05:39.671Z,100257.57
2017-10-13T13:09:43.121Z,100255.66
2017-10-13T13:13:46.603Z,100266.05
2017-10-13T13:17:50.053Z,100259.35
2017-10-13T13:21:54.297Z,100262.89
2017-10-13T13:25:57.778Z,100263.31
2017-10-13T13:30:01.253Z,100266.55
2017-10-13T13:34:04.728Z,100273.92
2017-10-13T13:38:08.214Z,100279.53
2017-10-13T13:42:12.471Z,100277.21
2017-10-13T13:46:15.986Z,100271.52
2017-10-13T13:50:19.438Z,100267.69
2017-10-13T13:54:22.962Z,100277.81
2017-10-13T13:58:27.214Z,100287.71
2017-10-13T14:02:30.809Z,100276.09
2017-10-13T14:06:35.024Z,100271.45
2017-10-13T14:10:39.315Z,100270.52
2017-10-13T14:14:42.765Z,100268.06
2017-10-13T14:18:47.789Z,100277.19
2017-10-13T14:22:51.263Z,100276.31
2017-10-13T14:26:54.743Z,100272.20
2017-10-13T14:30:58.251Z,100270.79
2017-10-13T14:35:01.730Z,100278.26
2017-10-13T14:39:05.954Z,100272.09
2017-10-13T14:43:10.218Z,100272.51
2017-10-13T14:47:13.673Z,100269.00
2017-10-13T14:51:17.158Z,100266.81
2017-10-13T14:55:20.618Z,100270.25
2017-10-13T14:59:24.107Z,100276.03
2017-10-13T15:03:28.326Z,100273.16
2017-10-13T15:07:31.802Z,100274.06
2017-10-13T15:11:35.262Z,100283.36
2017-10-13T15:15:39.519Z,100286.23
2017-10-13T15:19:42.979Z,100281.95
2017-10-13T15:23:47.227Z,100287.00
2017-10-13T15:32:36.547Z,100293.97
2017-10-13T15:36:39.993Z,100292.33
2017-10-13T15:40:48.961Z,100298.47
2017-10-13T15:44:53.195Z,100294.78
2017-10-13T15:49:03.001Z,100296.52
2017-10-13T15:53:06.459Z,100289.12
2017-10-13T15:57:09.947Z,100290.89
2017-10-13T16:01:14.172Z,100288.30
2017-10-13T16:05:18.470Z,100298.50
2017-10-13T16:09:21.919Z,100296.86
2017-10-13T16:13:26.171Z,100304.78
2017-10-13T16:17:29.617Z,100303.55
2017-10-13T16:21:33.099Z,100308.29
2017-10-13T16:25:36.551Z,100305.14
2017-10-13T16:29:40.817Z,100302.95
2017-10-13T16:33:44.290Z,100300.77
2017-10-13T16:37:48.527Z,100302.39
2017-10-13T16:41:52.763Z,100294.73
2017-10-13T16:45:56.252Z,100303.34
2017-10-13T16:50:00.466Z,100310.73
2017-10-13T16:54:03.968Z,100307.17
2017-10-13T16:58:07.422Z,100317.97
2017-10-13T17:02:10.920Z,100319.88
2017-10-13T17:06:14.395Z,100315.37
2017-10-13T17:10:17.871Z,100315.78
2017-10-13T17:14:21.326Z,100318.10
2017-10-13T17:18:25.571Z,100322.20
2017-10-13T17:22:29.038Z,100319.98
2017-10-13T17:26:32.529Z,100320.52
2017-10-13T17:30:35.974Z,100327.77
2017-10-13T17:34:40.222Z,100330.41
2017-10-13T17:38:43.694Z,100326.81
2017-10-13T17:42:47.952Z,100336.83
2017-10-13T17:46:51.412Z,100328.86
2017-10-13T17:50:54.905Z,100342.39
2017-10-13T17:54:58.354Z,100337.88
2017-10-13T17:59:02.621Z,100338.29
2017-10-13T18:03:06.079Z,100339.66
2017-10-13T18:07:10.338Z,100347.86
2017-10-13T18:11:13.791Z,100341.16
2017-10-13T18:15:17.274Z,100343.76
2017-10-13T18:19:20.736Z,100342.94
2017-10-13T18:23:24.986Z,100346.63
2017-10-13T18:27:28.455Z,100344.84
2017-10-13T18:31:32.728Z,100339.92
2017-10-13T18:35:36.334Z,100347.70
2017-10-13T18:39:39.830Z,100350.58
2017-10-13T18:43:43.283Z,100357.00
2017-10-13T18:47:46.834Z,100353.98
2017-10-13T18:51:50.302Z,100354.80
2017-10-13T18:55:53.759Z,100356.17
2017-10-13T18:59:57.983Z,100352.07
2017-10-13T19:04:01.501Z,100357.12
2017-10-13T19:08:04.970Z,100358.08
2017-10-13T19:12:09.243Z,100362.59
2017-10-13T19:16:12.703Z,100360.91
2017-10-13T19:20:16.959Z,100366.79
2017-10-13T19:24:20.418Z,100371.84
2017-10-13T19:28:23.903Z,100376.08
2017-10-13T19:32:27.359Z,100377.45
2017-10-13T19:36:31.668Z,100369.78
2017-10-13T19:40:35.148Z,100374.84
2017-10-13T19:44:38.629Z,100367.59
2017-10-13T19:48:42.073Z,100365.27
2017-10-13T19:52:45.559Z,100370.88
2017-10-13T19:56:49.021Z,100371.70
2017-10-13T20:00:53.275Z,100371.28
2017-10-13T20:04:56.732Z,100377.30
2017-10-13T20:09:00.263Z,100379.48
2017-10-13T20:13:04.482Z,100377.16
2017-10-13T20:17:08.759Z,100376.34
2017-10-13T20:21:12.222Z,100375.92
2017-10-13T20:25:16.471Z,100374.56
2017-10-13T20:29:19.922Z,100372.37
2017-10-13T20:33:23.398Z,100380.56
2017-10-13T20:37:26.851Z,100373.32
2017-10-13T20:41:30.348Z,100371.13
2017-10-13T20:45:33.799Z,100369.77
2017-10-13T20:49:37.288Z,100365.22
2017-10-13T20:53:41.508Z,100371.95
2017-10-13T20:57:45.771Z,100368.81
2017-10-13T21:01:49.218Z,100370.59
2017-10-13T21:05:52.735Z,100375.74
2017-10-13T21:09:56.191Z,100377.52
2017-10-13T21:13:59.675Z,100374.50
2017-10-13T21:18:03.891Z,100376.00
2017-10-13T21:22:08.142Z,100376.13
2017-10-13T21:26:11.591Z,100376.27
2017-10-13T21:30:15.073Z,100369.56
2017-10-13T21:34:18.536Z,100366.89
2017-10-13T21:38:22.775Z,100377.13
2017-10-13T21:42:27.004Z,100380.95
2017-10-13T21:46:30.479Z,100381.21
2017-10-13T21:50:33.935Z,100385.67
2017-10-13T21:54:37.411Z,100383.06
2017-10-13T21:58:41.640Z,100392.34
2017-10-13T22:02:45.896Z,100396.27
2017-10-13T22:06:49.360Z,100391.31
2017-10-13T22:10:53.618Z,100384.97
2017-10-13T22:14:57.080Z,100384.91
2017-10-13T22:19:00.563Z,100379.14
2017-10-13T22:23:04.023Z,100385.25
2017-10-13T22:27:08.270Z,100385.79
2017-10-13T22:31:11.714Z,100389.61
2017-10-13T22:35:15.208Z,100383.86
2017-10-13T22:39:18.651Z,100381.12
2017-10-13T22:43:22.122Z,100387.13
2017-10-13T22:47:25.580Z,100396.79
2017-10-13T22:51:29.967Z,100394.19
2017-10-13T22:55:33.415Z,100398.95
2017-10-13T22:59:37.661Z,100398.67
2017-10-13T23:03:41.127Z,100397.84
2017-10-13T23:07:44.608Z,100393.56
2017-10-13T23:11:48.049Z,100400.52
2017-10-13T23:15:51.514Z,100398.33
2017-10-13T23:19:54.959Z,100402.55
2017-10-13T23:23:58.479Z,100399.83
2017-10-13T23:28:02.697Z,100405.52
2017-10-13T23:32:06.221Z,100405.95
2017-10-13T23:36:10.440Z,100410.27
2017-10-13T23:40:14.678Z,100411.14
2017-10-13T23:44:18.134Z,100400.09
2017-10-13T23:48:21.626Z,100404.60
2017-10-13T23:52:25.083Z,100411.02
2017-10-13T23:56:29.342Z,100407.46
